Time;durP1;ratioP1;P1;durP2;ratioP2;P2;SDS_P1;SDS_P2;PMS_P1;PMS_P2;Temp;Humidity;BMP_temperature;BMP_pressure;BME280_temperature;BME280_humidity;BME280_pressure;Samples;Min_cycle;Max_cycle;Signal;HPM_P1;HPM_P2
2022/03/01 00:00:48;;;;;;;88.52;64.97;;;22.70;92.90;;;;;;1820110;77;21111;-85
2022/03/01 00:03:20;;;;;;;86.63;64.75;;;22.70;92.90;;;;;;1817236;77;21133;-85
2022/03/01 00:05:51;;;;;;;87.47;65.20;;;22.70;92.80;;;;;;1815323;77;21081;-85
2022/03/01 00:08:22;;;;;;;85.90;63.80;;;22.80;92.90;;;;;;1820735;77;21072;-85
2022/03/01 00:10:52;;;;;;;88.07;67.27;;;22.80;92.80;;;;;;1814502;77;21619;-85
2022/03/01 00:13:24;;;;;;;91.80;68.30;;;22.80;92.70;;;;;;1818340;77;21097;-86
2022/03/01 00:15:55;;;;;;;88.52;69.47;;;22.90;92.40;;;;;;1819260;77;21218;-86
2022/03/01 00:18:26;;;;;;;94.97;71.33;;;22.90;92.40;;;;;;1833729;77;21175;-86
2022/03/01 00:20:58;;;;;;;93.17;72.27;;;22.90;92.20;;;;;;1808822;77;21154;-86
2022/03/01 00:23:41;;;;;;;92.05;71.37;;;22.90;92.20;;;;;;1817216;77;21582;-86
2022/03/01 00:26:11;;;;;;;94.45;73.15;;;23.00;92.30;;;;;;1807392;77;21084;-86
2022/03/01 00:28:43;;;;;;;93.62;71.55;;;23.00;92.40;;;;;;1815941;77;21579;-87
2022/03/01 00:31:15;;;;;;;99.20;74.47;;;23.10;92.50;;;;;;1815490;77;21270;-86
2022/03/01 00:33:48;;;;;;;98.92;77.70;;;23.10;92.40;;;;;;1814171;77;21206;-86
2022/03/01 00:36:26;;;;;;;97.15;76.82;;;23.10;92.40;;;;;;1815728;77;21092;-87
2022/03/01 00:38:57;;;;;;;92.40;73.50;;;23.20;92.30;;;;;;1849182;77;21219;-86
2022/03/01 00:41:28;;;;;;;89.20;70.62;;;23.30;92.20;;;;;;1813347;77;21218;-85
2022/03/01 00:43:59;;;;;;;85.40;68.35;;;23.40;92.00;;;;;;1822198;77;21211;-85
2022/03/01 00:46:30;;;;;;;80.28;66.50;;;23.40;91.60;;;;;;1824196;77;21187;-86
2022/03/01 00:49:01;;;;;;;82.02;64.75;;;23.50;91.20;;;;;;1842630;77;21095;-86
2022/03/01 00:51:32;;;;;;;83.65;64.53;;;23.60;91.10;;;;;;1812790;77;21192;-85
2022/03/01 00:54:04;;;;;;;81.55;63.65;;;23.60;90.70;;;;;;1824371;77;21170;-80
2022/03/01 00:56:34;;;;;;;79.72;61.48;;;23.70;90.40;;;;;;1816111;77;21281;-84
2022/03/01 00:59:05;;;;;;;79.90;63.78;;;23.80;90.20;;;;;;1816497;79;21146;-83
2022/03/01 01:01:36;;;;;;;85.92;65.50;;;23.90;90.10;;;;;;1809770;77;21161;-82
2022/03/01 01:04:08;;;;;;;83.07;61.65;;;24.00;90.10;;;;;;1809990;77;21138;-83
2022/03/01 01:06:39;;;;;;;81.05;59.93;;;24.10;89.90;;;;;;1814414;77;21115;-84
2022/03/01 01:09:13;;;;;;;75.25;58.45;;;24.20;89.30;;;;;;1817577;77;21136;-82
2022/03/01 01:11:44;;;;;;;69.35;56.98;;;24.20;87.40;;;;;;1831445;77;21162;-79
2022/03/01 01:14:14;;;;;;;69.87;56.58;;;24.30;86.30;;;;;;1818539;77;21154;-80
2022/03/01 01:16:46;;;;;;;70.42;55.12;;;24.40;85.80;;;;;;1831998;77;21301;-79
2022/03/01 01:19:17;;;;;;;72.62;53.35;;;24.60;84.20;;;;;;1801632;77;21191;-80
2022/03/01 01:24:20;;;;;;;69.77;51.33;;;24.80;82.90;;;;;;1814857;77;21179;-80
2022/03/01 01:26:51;;;;;;;67.17;50.28;;;24.90;82.00;;;;;;1801834;77;21131;-81
2022/03/01 01:29:21;;;;;;;64.53;49.88;;;24.90;82.10;;;;;;1814243;77;21144;-72
2022/03/01 01:31:52;;;;;;;66.80;49.67;;;25.00;81.70;;;;;;1811119;77;21139;-72
2022/03/01 01:34:23;;;;;;;79.55;49.98;;;25.00;81.10;;;;;;1814100;77;21678;-73
2022/03/01 01:36:54;;;;;;;63.70;48.20;;;25.20;80.40;;;;;;1810159;79;21136;-72
2022/03/01 01:39:25;;;;;;;65.72;48.90;;;25.20;80.60;;;;;;1748216;80;21182;-71
2022/03/01 01:41:56;;;;;;;64.85;47.13;;;25.30;79.50;;;;;;1813414;78;21190;-71
2022/03/01 01:44:26;;;;;;;64.60;45.03;;;25.40;79.60;;;;;;1809595;77;21489;-71
2022/03/01 01:46:58;;;;;;;61.83;45.75;;;25.40;79.50;;;;;;1831610;77;21708;-71
2022/03/01 01:49:31;;;;;;;61.40;45.25;;;25.50;79.00;;;;;;1818093;77;21210;-71
2022/03/01 01:52:02;;;;;;;64.45;46.77;;;25.50;78.40;;;;;;1788570;79;21598;-72
2022/03/01 01:54:33;;;;;;;58.65;45.33;;;25.60;78.60;;;;;;1815888;77;21624;-71
2022/03/01 01:57:06;;;;;;;64.25;47.45;;;25.70;78.00;;;;;;1823069;77;21183;-71
2022/03/01 01:59:37;;;;;;;64.45;48.48;;;25.80;77.40;;;;;;1809282;77;21717;-72
2022/03/01 02:02:09;;;;;;;63.98;47.00;;;25.90;77.30;;;;;;1810090;77;21614;-72
2022/03/01 02:04:40;;;;;;;67.08;47.60;;;25.90;77.70;;;;;;1816484;78;21716;-71
2022/03/01 02:07:13;;;;;;;73.25;47.38;;;26.00;77.20;;;;;;1815573;78;21622;-71
2022/03/01 02:09:44;;;;;;;67.22;46.95;;;26.00;77.10;;;;;;1819263;77;21555;-71
2022/03/01 02:12:15;;;;;;;68.45;48.23;;;26.10;77.10;;;;;;1819255;78;21152;-71
2022/03/01 02:14:45;;;;;;;64.65;47.15;;;26.20;76.50;;;;;;1816726;78;21769;-72
2022/03/01 02:17:18;;;;;;;62.13;44.98;;;26.20;76.60;;;;;;1828897;77;21209;-73
2022/03/01 02:19:50;;;;;;;66.28;46.53;;;26.30;77.10;;;;;;1831304;77;22016;-72
2022/03/01 02:22:21;;;;;;;69.77;48.02;;;26.30;75.80;;;;;;1813855;78;21618;-72
2022/03/01 02:24:52;;;;;;;67.17;47.78;;;26.40;75.00;;;;;;1821294;77;21117;-70
2022/03/01 02:27:23;;;;;;;62.78;44.13;;;26.50;75.20;;;;;;1830229;77;21727;-71
2022/03/01 02:29:53;;;;;;;60.10;43.45;;;26.50;75.00;;;;;;1835685;77;21147;-72
2022/03/01 02:32:24;;;;;;;60.03;44.25;;;26.60;74.80;;;;;;1811579;77;21675;-73
2022/03/01 02:34:55;;;;;;;59.05;44.35;;;26.70;74.10;;;;;;1822258;78;21141;-71
2022/03/01 02:37:26;;;;;;;58.50;43.98;;;26.80;74.30;;;;;;1822274;77;21092;-72
2022/03/01 02:39:57;;;;;;;58.05;43.38;;;26.90;74.50;;;;;;1810556;77;21264;-72
2022/03/01 02:42:30;;;;;;;62.60;40.40;;;27.00;73.90;;;;;;1835648;77;21199;-72
2022/03/01 02:45:00;;;;;;;58.92;43.33;;;27.10;74.10;;;;;;1819175;77;21167;-72
2022/03/01 02:47:31;;;;;;;57.25;42.60;;;27.20;73.50;;;;;;1821774;77;21813;-72
2022/03/01 02:50:03;;;;;;;54.93;42.30;;;27.30;72.70;;;;;;1833378;77;21220;-72
2022/03/01 02:52:34;;;;;;;56.80;42.15;;;27.40;72.80;;;;;;1833006;77;21122;-72
2022/03/01 02:55:05;;;;;;;54.13;41.02;;;27.60;72.00;;;;;;1822101;77;21189;-73
2022/03/01 02:57:36;;;;;;;43.08;36.73;;;27.60;71.90;;;;;;1822904;77;21475;-72
2022/03/01 03:00:08;;;;;;;57.95;39.60;;;27.70;71.50;;;;;;1828693;77;21166;-74
2022/03/01 03:02:40;;;;;;;53.58;39.13;;;27.80;71.50;;;;;;1836123;77;21147;-73
2022/03/01 03:05:12;;;;;;;60.55;39.58;;;28.00;71.70;;;;;;1832767;77;21080;-72
2022/03/01 03:07:45;;;;;;;53.00;40.65;;;28.00;71.30;;;;;;1827628;77;21124;-71
2022/03/01 03:10:16;;;;;;;55.60;41.42;;;28.10;70.70;;;;;;1823471;77;21135;-72
2022/03/01 03:12:48;;;;;;;55.50;41.10;;;28.20;70.70;;;;;;1821919;78;21139;-73
2022/03/01 03:15:18;;;;;;;57.00;43.20;;;28.30;70.40;;;;;;1825671;77;21480;-73
2022/03/01 03:17:49;;;;;;;57.85;41.05;;;28.40;68.90;;;;;;1822735;77;21139;-72
2022/03/01 03:20:20;;;;;;;52.93;38.88;;;28.50;68.40;;;;;;1825449;77;21131;-73
2022/03/01 03:22:51;;;;;;;54.70;40.15;;;28.60;68.10;;;;;;1817826;77;21237;-73
2022/03/01 03:25:22;;;;;;;50.03;39.30;;;28.70;68.00;;;;;;1825788;77;21695;-73
2022/03/01 03:27:53;;;;;;;51.65;38.80;;;28.90;67.80;;;;;;1824237;77;21184;-73
2022/03/01 03:30:24;;;;;;;57.13;40.60;;;29.00;68.20;;;;;;1824036;77;21167;-73
2022/03/01 03:32:54;;;;;;;46.42;36.95;;;29.20;67.40;;;;;;1832516;77;21126;-72
2022/03/01 03:35:25;;;;;;;49.38;37.53;;;29.20;67.60;;;;;;1823829;77;21157;-72
2022/03/01 03:37:56;;;;;;;46.30;36.13;;;29.40;66.80;;;;;;1825699;77;21131;-73
2022/03/01 03:40:27;;;;;;;41.02;35.30;;;29.50;65.70;;;;;;1830469;77;21689;-72
2022/03/01 03:42:58;;;;;;;48.90;36.85;;;29.50;65.40;;;;;;1827243;77;21185;-73
2022/03/01 03:45:29;;;;;;;46.30;35.15;;;29.70;65.60;;;;;;1826087;77;21257;-73
2022/03/01 03:48:00;;;;;;;44.15;34.35;;;29.70;64.90;;;;;;1831382;77;21166;-72
2022/03/01 03:50:30;;;;;;;43.98;35.75;;;29.80;63.70;;;;;;1822382;77;21178;-72
2022/03/01 03:53:02;;;;;;;45.43;34.33;;;29.90;63.50;;;;;;1822204;77;21197;-73
2022/03/01 03:55:33;;;;;;;44.23;34.23;;;30.10;64.60;;;;;;1823320;77;21610;-72
2022/03/01 03:58:04;;;;;;;42.08;33.98;;;30.20;63.70;;;;;;1827310;78;21654;-72
2022/03/01 04:00:35;;;;;;;42.80;34.60;;;30.30;63.40;;;;;;1834430;77;21606;-73
2022/03/01 04:03:07;;;;;;;42.85;33.25;;;30.40;63.00;;;;;;1822947;77;21092;-72
2022/03/01 04:05:38;;;;;;;45.85;33.28;;;30.50;63.20;;;;;;1817227;77;21213;-72
2022/03/01 04:08:13;;;;;;;38.80;32.08;;;30.50;62.60;;;;;;1818591;77;21244;-74
2022/03/01 04:10:43;;;;;;;42.45;33.80;;;30.60;62.80;;;;;;1813938;77;21618;-74
2022/03/01 04:13:14;;;;;;;39.30;32.48;;;30.70;62.50;;;;;;1820142;77;21595;-74
2022/03/01 04:15:45;;;;;;;41.77;32.70;;;30.80;61.60;;;;;;1808700;77;21163;-74
2022/03/01 04:18:15;;;;;;;42.08;32.40;;;30.90;61.10;;;;;;1816526;77;21171;-74
2022/03/01 04:20:46;;;;;;;39.08;31.68;;;30.90;61.70;;;;;;1828495;77;21162;-74
2022/03/01 04:23:17;;;;;;;40.12;32.83;;;31.00;60.70;;;;;;1815700;77;21706;-73
2022/03/01 04:25:48;;;;;;;41.33;32.93;;;31.00;60.50;;;;;;1815892;77;21127;-74
2022/03/01 04:28:18;;;;;;;36.05;31.52;;;31.10;60.00;;;;;;1816652;77;21190;-72
2022/03/01 04:30:49;;;;;;;35.98;31.20;;;31.20;60.50;;;;;;1815548;77;21791;-75
2022/03/01 04:33:20;;;;;;;39.50;32.30;;;31.30;59.00;;;;;;1818234;77;21139;-73
2022/03/01 04:35:51;;;;;;;39.78;30.95;;;31.40;59.50;;;;;;1823000;77;21540;-72
2022/03/01 04:38:25;;;;;;;39.45;33.08;;;31.50;59.70;;;;;;1825109;77;21761;-73
2022/03/01 04:40:54;;;;;;;33.73;28.83;;;31.50;59.20;;;;;;1814408;77;21598;-73
2022/03/01 04:43:24;;;;;;;39.92;29.25;;;31.60;57.70;;;;;;1819582;77;21104;-74
2022/03/01 04:45:56;;;;;;;31.75;26.57;;;31.70;56.30;;;;;;1832825;77;21269;-74
2022/03/01 04:48:27;;;;;;;32.90;28.05;;;31.80;55.00;;;;;;1823239;77;21158;-73
2022/03/01 04:50:59;;;;;;;38.00;28.60;;;31.90;56.80;;;;;;1812627;77;21687;-72
2022/03/01 04:53:29;;;;;;;37.60;28.67;;;31.90;56.50;;;;;;1827557;77;21135;-72
2022/03/01 04:56:00;;;;;;;35.35;29.52;;;32.00;55.80;;;;;;1822814;77;21589;-73
2022/03/01 04:58:31;;;;;;;30.70;23.38;;;32.00;56.90;;;;;;1811959;77;21572;-73
2022/03/01 05:01:02;;;;;;;27.22;22.07;;;32.10;54.20;;;;;;1819780;77;21132;-72
2022/03/01 05:03:34;;;;;;;27.05;23.22;;;32.20;54.30;;;;;;1810126;77;21173;-74
2022/03/01 05:06:05;;;;;;;24.15;21.65;;;32.20;53.40;;;;;;1817377;77;21150;-71
2022/03/01 05:08:35;;;;;;;24.87;22.25;;;32.20;53.50;;;;;;1820451;77;21195;-82
2022/03/01 05:11:06;;;;;;;26.00;22.00;;;32.20;53.60;;;;;;1810792;78;21258;-83
2022/03/01 05:13:37;;;;;;;28.87;23.55;;;32.20;55.20;;;;;;1815027;77;21146;-83
2022/03/01 05:16:07;;;;;;;24.95;22.22;;;32.30;53.00;;;;;;1816791;78;21127;-83
2022/03/01 05:18:38;;;;;;;24.07;21.48;;;32.30;53.60;;;;;;1786093;79;21240;-83
2022/03/01 05:21:09;;;;;;;27.32;23.22;;;32.40;52.10;;;;;;1820613;77;21174;-84
2022/03/01 05:23:39;;;;;;;23.95;19.50;;;32.40;52.60;;;;;;1815794;77;21162;-82
2022/03/01 05:26:11;;;;;;;23.87;20.80;;;32.50;52.30;;;;;;1816335;77;21904;-85
2022/03/01 05:28:42;;;;;;;26.00;21.23;;;32.60;52.00;;;;;;1779681;79;21221;-84
2022/03/01 05:31:13;;;;;;;27.58;21.65;;;32.60;52.60;;;;;;1770356;79;21124;-83
2022/03/01 05:33:43;;;;;;;26.02;20.30;;;32.60;50.50;;;;;;1808794;78;21127;-83
2022/03/01 05:36:16;;;;;;;22.15;19.80;;;32.70;52.20;;;;;;1824258;77;21148;-83
2022/03/01 05:38:47;;;;;;;20.68;17.70;;;32.80;53.10;;;;;;1750947;80;21207;-85
2022/03/01 05:41:19;;;;;;;21.40;18.87;;;32.90;50.80;;;;;;1818000;77;21748;-68
2022/03/01 05:43:50;;;;;;;19.55;17.45;;;32.90;51.00;;;;;;1819535;77;21583;-73
2022/03/01 05:46:21;;;;;;;20.00;17.80;;;33.00;48.40;;;;;;1821838;78;21231;-72
2022/03/01 05:48:52;;;;;;;20.88;18.15;;;33.00;50.20;;;;;;1777900;79;22114;-72
2022/03/01 05:51:23;;;;;;;21.23;17.12;;;33.00;47.20;;;;;;1747331;82;21638;-70
2022/03/01 05:53:54;;;;;;;19.00;16.07;;;32.90;49.30;;;;;;1824426;77;21144;-71
2022/03/01 05:56:25;;;;;;;18.25;16.30;;;33.00;45.80;;;;;;1816747;77;21186;-72
2022/03/01 05:58:56;;;;;;;20.12;18.05;;;33.10;48.20;;;;;;1754441;80;21154;-71
2022/03/01 06:01:27;;;;;;;18.75;16.55;;;33.10;48.30;;;;;;1818836;77;21299;-71
2022/03/01 06:03:57;;;;;;;16.95;15.25;;;33.30;47.70;;;;;;1819852;77;21103;-72
2022/03/01 06:06:28;;;;;;;19.20;16.50;;;33.30;47.70;;;;;;1822987;77;21346;-72
2022/03/01 06:08:59;;;;;;;17.45;15.45;;;33.30;44.80;;;;;;1826569;76;21194;-72
2022/03/01 06:11:30;;;;;;;22.70;17.25;;;33.30;46.50;;;;;;1822210;77;21559;-72
2022/03/01 06:14:01;;;;;;;18.45;16.55;;;33.40;46.30;;;;;;1821225;77;21190;-71
2022/03/01 06:16:32;;;;;;;18.70;16.17;;;33.40;45.60;;;;;;1814251;77;21219;-72
2022/03/01 06:19:03;;;;;;;16.65;14.87;;;33.40;46.90;;;;;;1812505;78;21083;-71
2022/03/01 06:21:35;;;;;;;17.90;15.45;;;33.40;44.80;;;;;;1819610;78;21143;-70
2022/03/01 06:24:06;;;;;;;18.90;16.35;;;33.40;41.90;;;;;;1808073;78;21273;-71
2022/03/01 06:26:37;;;;;;;19.77;16.52;;;33.40;44.50;;;;;;1816766;77;21166;-73
2022/03/01 06:29:10;;;;;;;18.50;16.57;;;33.40;46.00;;;;;;1812380;79;21189;-74
2022/03/01 06:31:41;;;;;;;18.12;16.25;;;33.40;46.10;;;;;;1806669;79;21241;-74
2022/03/01 06:34:12;;;;;;;17.12;14.85;;;33.50;46.00;;;;;;1808883;77;21152;-72
2022/03/01 06:36:43;;;;;;;17.60;15.65;;;33.50;43.10;;;;;;1823219;77;21194;-73
2022/03/01 06:39:14;;;;;;;18.55;14.87;;;33.50;44.90;;;;;;1818574;77;21143;-73
2022/03/01 06:41:45;;;;;;;15.70;13.80;;;33.50;45.40;;;;;;1817028;77;21248;-72
2022/03/01 06:44:16;;;;;;;15.32;13.72;;;33.60;42.00;;;;;;1818479;77;21233;-72
2022/03/01 06:46:47;;;;;;;21.82;17.90;;;33.70;41.00;;;;;;1818175;77;21071;-73
2022/03/01 06:49:18;;;;;;;16.62;14.13;;;33.70;43.20;;;;;;1818189;78;21619;-71
2022/03/01 06:51:49;;;;;;;16.20;14.50;;;33.70;41.60;;;;;;1808542;78;21144;-72
2022/03/01 06:54:19;;;;;;;17.85;15.48;;;33.70;41.30;;;;;;1809765;78;21629;-73
2022/03/01 06:56:50;;;;;;;17.15;14.03;;;33.70;42.70;;;;;;1820289;77;21740;-73
2022/03/01 06:59:20;;;;;;;15.35;13.78;;;33.70;41.80;;;;;;1823961;77;21327;-73
2022/03/01 07:01:51;;;;;;;15.45;13.83;;;33.70;39.70;;;;;;1823866;77;21155;-72
2022/03/01 07:04:23;;;;;;;14.38;12.98;;;33.70;40.50;;;;;;1818003;77;21244;-73
2022/03/01 07:06:54;;;;;;;15.72;13.50;;;33.70;41.40;;;;;;1821559;77;21174;-73
2022/03/01 07:09:26;;;;;;;14.07;12.63;;;33.70;41.50;;;;;;1819603;77;21198;-73
2022/03/01 07:11:58;;;;;;;14.15;12.75;;;33.70;40.70;;;;;;1837021;77;21647;-71
2022/03/01 07:14:29;;;;;;;15.18;13.13;;;33.60;40.00;;;;;;1839106;77;21627;-72
2022/03/01 07:16:59;;;;;;;16.12;14.00;;;33.60;40.50;;;;;;1836235;76;21171;-73
2022/03/01 07:19:31;;;;;;;14.30;12.88;;;33.60;40.30;;;;;;1822286;78;21158;-72
2022/03/01 07:22:01;;;;;;;16.90;14.98;;;33.60;40.00;;;;;;1832252;77;21166;-73
2022/03/01 07:24:32;;;;;;;15.90;14.13;;;33.60;40.90;;;;;;1831659;76;21136;-73
2022/03/01 07:27:02;;;;;;;17.55;14.73;;;33.60;41.20;;;;;;1841412;76;21201;-73
2022/03/01 07:29:33;;;;;;;20.08;16.87;;;33.70;41.10;;;;;;1824307;78;21171;-73
2022/03/01 07:32:05;;;;;;;20.92;18.00;;;33.80;43.30;;;;;;1839868;76;21173;-73
2022/03/01 07:34:36;;;;;;;18.50;15.18;;;33.80;42.10;;;;;;1837425;76;21239;-73
2022/03/01 07:37:07;;;;;;;16.10;14.40;;;33.70;42.70;;;;;;1836250;76;21176;-73
2022/03/01 07:39:38;;;;;;;17.45;14.78;;;33.80;40.20;;;;;;1839040;76;21109;-72
2022/03/01 07:42:09;;;;;;;18.80;15.68;;;33.70;40.90;;;;;;1833546;76;21159;-72
2022/03/01 07:44:41;;;;;;;16.05;14.25;;;33.70;40.40;;;;;;1833610;76;21659;-72
2022/03/01 07:47:11;;;;;;;16.65;14.55;;;33.60;41.00;;;;;;1850209;76;21736;-73
2022/03/01 07:49:43;;;;;;;15.72;14.13;;;33.60;40.80;;;;;;1838949;76;21224;-73
2022/03/01 07:52:14;;;;;;;15.65;13.98;;;33.60;41.00;;;;;;1831715;76;21095;-73
2022/03/01 07:54:45;;;;;;;20.37;15.03;;;33.50;40.90;;;;;;1841826;76;21248;-73
2022/03/01 07:57:18;;;;;;;16.73;14.83;;;33.50;39.60;;;;;;1844026;76;22039;-73
2022/03/01 07:59:48;;;;;;;18.05;14.35;;;33.50;40.70;;;;;;1858953;76;21771;-72
2022/03/01 08:02:19;;;;;;;17.12;15.03;;;33.50;39.90;;;;;;1847743;76;21238;-72
2022/03/01 08:04:50;;;;;;;17.20;15.50;;;33.50;41.20;;;;;;1843443;76;21206;-72
2022/03/01 08:07:24;;;;;;;19.25;16.20;;;33.50;42.60;;;;;;1838379;76;21184;-71
2022/03/01 08:09:54;;;;;;;16.82;15.00;;;33.40;41.80;;;;;;1838905;76;21618;-71
2022/03/01 08:12:25;;;;;;;18.73;15.05;;;33.40;42.10;;;;;;1821655;77;21147;-71
2022/03/01 08:14:56;;;;;;;15.85;14.20;;;33.40;42.20;;;;;;1823661;77;21166;-71
2022/03/01 08:17:27;;;;;;;15.43;13.50;;;33.30;41.90;;;;;;1826308;77;22114;-71
2022/03/01 08:19:58;;;;;;;16.87;14.00;;;33.30;42.80;;;;;;1819841;77;21123;-71
2022/03/01 08:22:29;;;;;;;17.85;14.45;;;33.30;42.60;;;;;;1822610;77;21126;-72
2022/03/01 08:25:00;;;;;;;16.20;14.47;;;33.20;41.60;;;;;;1823321;77;21612;-70
2022/03/01 08:27:30;;;;;;;16.17;14.20;;;33.20;41.30;;;;;;1815364;77;21141;-72
2022/03/01 08:30:02;;;;;;;15.03;12.90;;;33.20;41.40;;;;;;1824634;77;21193;-72
2022/03/01 08:32:33;;;;;;;17.17;14.38;;;33.20;40.60;;;;;;1822831;77;21591;-71
2022/03/01 08:35:04;;;;;;;18.00;14.07;;;33.20;39.80;;;;;;1820285;77;21579;-70
2022/03/01 08:37:35;;;;;;;16.62;14.87;;;33.20;40.80;;;;;;1828063;77;21508;-72
2022/03/01 08:40:07;;;;;;;18.52;14.30;;;33.20;41.50;;;;;;1820860;78;21082;-72
2022/03/01 08:42:37;;;;;;;17.05;13.03;;;33.20;41.00;;;;;;1813040;77;21124;-72
2022/03/01 08:45:09;;;;;;;19.85;13.68;;;33.10;41.10;;;;;;1825515;77;21250;-72
2022/03/01 08:47:42;;;;;;;16.20;13.55;;;33.20;40.00;;;;;;1804236;78;21221;-73
2022/03/01 08:50:13;;;;;;;14.75;13.25;;;33.20;40.50;;;;;;1826991;77;21676;-73
2022/03/01 08:52:45;;;;;;;15.00;13.10;;;33.20;40.90;;;;;;1834414;77;21739;-73
2022/03/01 08:55:16;;;;;;;18.07;12.93;;;33.10;40.20;;;;;;1823581;78;21788;-73
2022/03/01 08:57:47;;;;;;;15.25;13.65;;;33.20;41.10;;;;;;1812993;78;21206;-73
2022/03/01 09:00:19;;;;;;;15.00;13.43;;;33.20;40.50;;;;;;1822817;77;21662;-73
2022/03/01 09:02:50;;;;;;;14.80;13.20;;;33.20;40.50;;;;;;1824777;77;21642;-73
2022/03/01 09:05:21;;;;;;;17.07;14.75;;;33.30;38.70;;;;;;1833078;77;21147;-73
2022/03/01 09:07:51;;;;;;;15.10;13.58;;;33.30;39.60;;;;;;1827250;77;21278;-71
2022/03/01 09:10:23;;;;;;;19.98;14.85;;;33.30;38.00;;;;;;1818363;77;21583;-72
2022/03/01 09:12:54;;;;;;;17.50;15.68;;;33.30;37.50;;;;;;1827567;77;21621;-72
2022/03/01 09:15:30;;;;;;;17.23;14.80;;;33.30;37.70;;;;;;1757895;80;21566;-73
2022/03/01 09:17:59;;;;;;;15.28;13.75;;;33.30;39.80;;;;;;1825332;77;21154;-73
2022/03/01 09:20:31;;;;;;;19.05;15.88;;;33.30;39.10;;;;;;1836812;77;21153;-72
2022/03/01 09:23:02;;;;;;;16.42;14.83;;;33.20;40.00;;;;;;1831751;77;21561;-72
2022/03/01 09:25:33;;;;;;;16.15;14.45;;;33.20;39.20;;;;;;1787309;79;21138;-72
2022/03/01 09:28:04;;;;;;;15.85;13.65;;;33.10;40.10;;;;;;1793980;79;21118;-73
2022/03/01 09:30:36;;;;;;;15.55;13.75;;;33.00;40.10;;;;;;1828112;77;21895;-73
2022/03/01 09:33:07;;;;;;;14.58;13.05;;;33.00;40.50;;;;;;1830819;77;21154;-73
2022/03/01 09:35:38;;;;;;;15.00;13.43;;;32.90;39.30;;;;;;1831670;77;21317;-72
2022/03/01 09:38:09;;;;;;;14.47;13.00;;;32.90;40.50;;;;;;1784623;79;21178;-72
2022/03/01 09:40:41;;;;;;;21.73;15.98;;;32.80;39.50;;;;;;1832846;77;21596;-72
2022/03/01 09:43:12;;;;;;;15.78;13.60;;;32.80;41.00;;;;;;1827340;77;21248;-72
2022/03/01 09:45:43;;;;;;;15.03;13.43;;;32.70;40.30;;;;;;1820466;77;21139;-72
2022/03/01 09:48:15;;;;;;;17.07;13.98;;;32.60;41.50;;;;;;1813929;78;21091;-72
2022/03/01 09:50:47;;;;;;;16.05;14.30;;;32.60;40.70;;;;;;1785036;80;21256;-72
2022/03/01 09:53:18;;;;;;;17.82;14.47;;;32.60;41.40;;;;;;1831728;77;21135;-73
2022/03/01 09:55:49;;;;;;;16.15;13.85;;;32.60;41.20;;;;;;1839100;78;21133;-73
2022/03/01 09:58:20;;;;;;;14.80;12.47;;;32.50;41.80;;;;;;1788721;80;21623;-73
2022/03/01 10:00:51;;;;;;;15.70;13.60;;;32.50;41.90;;;;;;1831615;77;21144;-72
2022/03/01 10:03:22;;;;;;;15.38;13.85;;;32.50;41.00;;;;;;1831451;77;21948;-73
2022/03/01 10:05:54;;;;;;;16.35;13.25;;;32.40;41.60;;;;;;1833590;77;21186;-73
2022/03/01 10:08:24;;;;;;;19.30;13.88;;;32.40;41.00;;;;;;1790986;78;21112;-72
2022/03/01 10:10:55;;;;;;;16.20;14.28;;;32.40;42.00;;;;;;1767342;80;21143;-73
2022/03/01 10:13:29;;;;;;;16.15;12.93;;;32.40;41.80;;;;;;1818755;77;21170;-73
2022/03/01 10:16:03;;;;;;;23.25;17.15;;;32.40;42.00;;;;;;1818225;79;21190;-73
2022/03/01 10:18:36;;;;;;;15.50;13.70;;;32.30;42.10;;;;;;1819072;77;21657;-73
2022/03/01 10:21:09;;;;;;;15.03;13.40;;;32.30;42.50;;;;;;1816629;77;21166;-73
2022/03/01 10:23:42;;;;;;;16.80;14.05;;;32.30;42.10;;;;;;1818062;77;21151;-72
2022/03/01 10:26:14;;;;;;;17.73;15.08;;;32.20;41.90;;;;;;1818235;77;21256;-73
2022/03/01 10:28:46;;;;;;;16.17;14.23;;;32.20;42.30;;;;;;1810434;77;21660;-73
2022/03/01 10:31:20;;;;;;;17.25;14.35;;;32.20;42.60;;;;;;1817011;77;21211;-72
2022/03/01 10:33:54;;;;;;;16.82;15.05;;;32.10;43.60;;;;;;1819553;77;21178;-72
2022/03/01 10:36:26;;;;;;;16.95;15.05;;;32.10;43.20;;;;;;1819325;77;21560;-73
2022/03/01 10:39:00;;;;;;;19.02;16.32;;;32.10;43.30;;;;;;1813423;79;21141;-83
2022/03/01 10:41:33;;;;;;;20.35;15.38;;;32.10;43.50;;;;;;1817305;77;21627;-88
2022/03/01 10:44:05;;;;;;;16.82;15.03;;;32.00;43.50;;;;;;1819600;77;21153;-82
2022/03/01 10:46:38;;;;;;;17.12;15.18;;;32.00;43.90;;;;;;1819545;78;21123;-85
2022/03/01 10:49:12;;;;;;;16.97;15.25;;;31.90;43.90;;;;;;1818276;77;21131;-83
2022/03/01 10:51:45;;;;;;;21.37;16.82;;;31.90;43.80;;;;;;1826469;77;21139;-85
2022/03/01 10:54:18;;;;;;;19.05;14.95;;;31.90;43.80;;;;;;1805845;79;21254;-84
2022/03/01 10:56:55;;;;;;;18.80;15.85;;;31.90;44.00;;;;;;1818388;79;21149;-85
2022/03/01 10:59:26;;;;;;;19.67;16.97;;;31.80;44.00;;;;;;1819163;79;21221;-86
2022/03/01 11:01:59;;;;;;;20.52;16.70;;;31.80;44.40;;;;;;1819761;77;21186;-85
2022/03/01 11:04:31;;;;;;;16.87;14.60;;;31.70;44.50;;;;;;1818264;78;21135;-85
2022/03/01 11:07:04;;;;;;;21.93;17.23;;;31.70;44.50;;;;;;1811571;78;21197;-85
2022/03/01 11:09:35;;;;;;;22.37;18.37;;;31.60;44.40;;;;;;1814812;77;21237;-85
2022/03/01 11:12:08;;;;;;;25.88;18.85;;;31.50;45.10;;;;;;1812913;77;21248;-83
2022/03/01 11:14:42;;;;;;;19.32;16.57;;;31.50;45.30;;;;;;1819188;78;21518;-84
2022/03/01 11:17:15;;;;;;;23.32;18.27;;;31.40;45.20;;;;;;1817804;77;21243;-84
2022/03/01 11:19:47;;;;;;;20.35;17.07;;;31.40;45.50;;;;;;1830420;77;21560;-84
2022/03/01 11:22:22;;;;;;;22.85;19.30;;;31.40;45.40;;;;;;1819314;78;21210;-83
2022/03/01 11:24:54;;;;;;;26.62;20.60;;;31.30;45.80;;;;;;1834382;77;21670;-86
2022/03/01 11:27:27;;;;;;;27.32;20.72;;;31.20;46.00;;;;;;1835713;78;21382;-85
2022/03/01 11:30:00;;;;;;;22.55;16.00;;;31.20;46.30;;;;;;1819766;77;21882;-85
2022/03/01 11:32:33;;;;;;;20.62;16.50;;;31.10;45.70;;;;;;1817039;78;21120;-84
2022/03/01 11:35:04;;;;;;;28.38;19.52;;;31.10;46.20;;;;;;1817392;78;21193;-85
2022/03/01 11:37:35;;;;;;;26.00;20.32;;;31.10;46.30;;;;;;1817356;79;21175;-85
2022/03/01 11:40:06;;;;;;;30.57;22.75;;;31.00;46.50;;;;;;1821269;78;21162;-85
2022/03/01 11:42:37;;;;;;;48.65;29.37;;;31.00;46.10;;;;;;1823115;77;21713;-85
2022/03/01 11:45:10;;;;;;;37.05;25.75;;;30.90;46.60;;;;;;1820207;77;22003;-85
2022/03/01 11:47:41;;;;;;;32.58;22.42;;;30.90;47.00;;;;;;1819456;77;21200;-85
2022/03/01 11:50:15;;;;;;;26.75;18.17;;;30.90;47.60;;;;;;1820583;77;21485;-84
2022/03/01 11:52:49;;;;;;;29.23;21.65;;;30.80;46.80;;;;;;1803211;77;21185;-83
2022/03/01 11:55:21;;;;;;;22.58;18.02;;;30.80;47.50;;;;;;1815934;78;21241;-84
2022/03/01 11:57:53;;;;;;;22.07;18.07;;;30.70;48.40;;;;;;1826636;77;21233;-85
2022/03/01 12:00:26;;;;;;;26.02;17.75;;;30.70;48.60;;;;;;1830420;77;21135;-83
2022/03/01 12:02:59;;;;;;;25.20;18.87;;;30.60;48.80;;;;;;1820423;77;21103;-86
2022/03/01 12:05:31;;;;;;;22.70;17.65;;;30.50;48.70;;;;;;1819252;77;21092;-84
2022/03/01 12:08:04;;;;;;;29.48;19.70;;;30.50;49.10;;;;;;1828446;77;21123;-86
2022/03/01 12:10:38;;;;;;;29.90;19.40;;;30.40;49.30;;;;;;1817662;78;21123;-84
2022/03/01 12:13:09;;;;;;;31.33;24.07;;;30.40;49.50;;;;;;1817324;78;21166;-84
2022/03/01 12:15:41;;;;;;;36.30;25.75;;;30.30;49.70;;;;;;1817431;77;21566;-84
2022/03/01 12:18:15;;;;;;;21.95;18.17;;;30.30;49.90;;;;;;1816430;79;21528;-83
2022/03/01 12:20:47;;;;;;;23.40;17.87;;;30.30;50.10;;;;;;1817740;78;21092;-85
2022/03/01 12:23:20;;;;;;;20.80;16.90;;;30.20;50.40;;;;;;1801378;80;21139;-84
2022/03/01 12:25:50;;;;;;;22.37;16.97;;;30.20;50.60;;;;;;1815043;77;21135;-85
2022/03/01 12:28:23;;;;;;;24.65;17.40;;;30.10;51.10;;;;;;1813851;77;21108;-86
2022/03/01 12:30:54;;;;;;;27.65;17.50;;;30.00;51.60;;;;;;1817270;78;21305;-85
2022/03/01 12:33:25;;;;;;;28.00;17.73;;;29.90;51.90;;;;;;1819981;77;21594;-85
2022/03/01 12:36:03;;;;;;;25.37;17.50;;;29.80;51.80;;;;;;1818477;78;21187;-86
2022/03/01 12:38:32;;;;;;;22.22;17.20;;;29.80;51.90;;;;;;1817979;78;21055;-86
2022/03/01 12:41:05;;;;;;;26.60;17.75;;;29.80;52.20;;;;;;1820901;77;21147;-86
2022/03/01 12:43:56;;;;;;;26.60;20.68;;;29.70;52.50;;;;;;1817129;78;21163;-86
2022/03/01 12:46:29;;;;;;;22.27;17.20;;;29.70;52.90;;;;;;1871684;76;21236;-85
2022/03/01 12:49:02;;;;;;;22.77;16.90;;;29.60;53.40;;;;;;1876501;75;21148;-85
2022/03/01 12:51:34;;;;;;;22.07;17.30;;;29.50;53.70;;;;;;1844021;77;21614;-84